Time;durP1;ratioP1;P1;durP2;ratioP2;P2;SDS_P1;SDS_P2;PMS_P1;PMS_P2;Temp;Humidity;BMP_temperature;BMP_pressure;BME280_temperature;BME280_humidity;BME280_pressure;Samples;Min_cycle;Max_cycle;Signal;HPM_P1;HPM_P2
2022/12/15 00:39:06;;;;;;;388.17;272.33;;;;;;;22.11;34.75;99843.41;5070861;28;20041;-49
2022/12/15 00:41:35;;;;;;;394.02;276.33;;;;;;;22.10;34.39;99839.03;5074794;28;20162;-48
2022/12/15 00:44:05;;;;;;;380.40;274.17;;;;;;;22.06;34.15;99824.22;5072615;28;20056;-45
2022/12/15 00:46:54;;;;;;;398.85;282.33;;;;;;;22.18;34.36;99850.38;5073070;28;20122;-41
2022/12/15 01:20:17;;;;;;;411.95;296.55;;;;;;;22.10;35.18;99852.09;5053121;28;20033;-45
2022/12/15 01:22:47;;;;;;;413.75;295.15;;;;;;;22.11;34.97;99833.81;5059051;28;20033;-41
2022/12/15 01:25:16;;;;;;;408.52;296.60;;;;;;;22.19;34.99;99846.88;5073559;28;20054;-49
2022/12/15 01:27:44;;;;;;;415.67;296.63;;;;;;;22.12;34.96;99838.16;5073380;28;20099;-48
2022/12/15 01:30:14;;;;;;;412.48;297.67;;;;;;;22.03;34.84;99822.47;5073008;28;20390;-49
2022/12/15 01:32:42;;;;;;;418.02;303.17;;;;;;;22.11;34.87;99827.72;5071574;28;20089;-44
2022/12/15 01:35:10;;;;;;;417.00;302.92;;;;;;;22.09;34.81;99825.09;5072085;28;20020;-41
2022/12/15 01:37:38;;;;;;;407.30;297.42;;;;;;;22.13;35.10;99836.44;5073519;28;20477;-46
2022/12/15 01:40:49;;;;;;;420.63;299.27;;;;;;;22.10;35.07;99832.06;5071889;28;20096;-50
2022/12/15 01:42:54;;;;;;;418.80;302.45;;;;;;;22.11;35.02;99843.41;5069320;28;20070;-53
2022/12/15 01:45:25;;;;;;;411.73;299.40;;;;;;;22.12;34.93;99855.59;5073017;28;20028;-52
2022/12/15 01:47:56;;;;;;;422.25;309.95;;;;;;;22.10;35.23;99858.19;5073474;28;20112;-47
2022/12/15 01:50:24;;;;;;;425.70;304.58;;;;;;;22.12;35.02;99871.28;5071971;28;20027;-44
2022/12/15 01:52:54;;;;;;;421.45;307.38;;;;;;;22.13;35.13;99862.56;5071601;28;20028;-50
2022/12/15 01:55:23;;;;;;;415.70;304.13;;;;;;;22.15;35.21;99871.28;5071827;28;20037;-50
2022/12/15 01:57:53;;;;;;;417.70;303.10;;;;;;;22.14;34.69;99869.53;5071693;28;20025;-49
2022/12/15 02:00:22;;;;;;;412.15;300.35;;;;;;;22.14;34.91;99877.38;5072673;28;20028;-41
2022/12/15 02:02:49;;;;;;;422.42;308.52;;;;;;;22.09;35.24;99885.16;5072187;28;20040;-46
2022/12/15 02:05:17;;;;;;;424.45;307.50;;;;;;;22.11;35.15;99886.03;5072796;28;20035;-50
2022/12/15 02:07:44;;;;;;;412.55;298.65;;;;;;;22.12;35.19;99882.56;5073008;28;20035;-42
2022/12/15 02:10:12;;;;;;;423.60;302.55;;;;;;;22.13;35.39;99876.47;5072948;28;20024;-51
2022/12/15 02:13:00;;;;;;;404.65;296.17;;;;;;;22.12;35.08;99864.28;5072366;28;20107;-48
2022/12/15 02:15:51;;;;;;;409.08;292.70;;;;;;;22.15;35.23;99866.91;5066635;28;20470;-49
2022/12/15 02:18:35;;;;;;;418.45;303.50;;;;;;;22.17;35.24;99864.31;5072400;28;20409;-48
2022/12/15 02:21:10;;;;;;;410.52;295.15;;;;;;;22.19;35.29;99880.00;5071819;28;20021;-49
2022/12/15 02:23:58;;;;;;;416.35;302.92;;;;;;;22.15;35.14;99874.75;5071071;28;20508;-47
2022/12/15 02:26:44;;;;;;;410.92;298.25;;;;;;;22.15;35.17;99884.34;5068887;28;20482;-49
2022/12/15 02:29:20;;;;;;;416.80;293.67;;;;;;;22.17;35.24;99885.22;5072748;28;20039;-51
2022/12/15 02:31:55;;;;;;;417.60;299.23;;;;;;;22.14;35.23;99893.03;5071349;28;20067;-50
2022/12/15 02:34:32;;;;;;;409.60;289.40;;;;;;;22.14;35.08;99888.69;5072108;28;20541;-44
2022/12/15 02:37:32;;;;;;;407.23;289.90;;;;;;;22.09;35.04;99872.09;5071055;28;20151;-41
2022/12/15 02:40:00;;;;;;;396.98;282.00;;;;;;;22.18;35.05;99891.31;5069142;28;20401;-48
2022/12/15 02:42:30;;;;;;;381.42;273.08;;;;;;;22.18;34.79;99875.63;5072346;28;20056;-41
2022/12/15 02:45:06;;;;;;;372.63;265.17;;;;;;;22.17;34.74;99880.00;5072535;28;20370;-49
2022/12/15 02:47:56;;;;;;;367.30;258.25;;;;;;;22.13;34.75;99868.66;5072041;28;20119;-49
2022/12/15 02:50:42;;;;;;;358.50;252.02;;;;;;;22.17;34.43;99861.72;5066341;28;20044;-50
2022/12/15 02:53:30;;;;;;;348.02;242.73;;;;;;;22.20;34.36;99866.06;5073155;28;20021;-47
2022/12/15 02:56:05;;;;;;;340.23;237.32;;;;;;;22.21;34.46;99859.97;5076550;28;20063;-49
2022/12/15 02:58:57;;;;;;;327.15;230.65;;;;;;;22.19;34.20;99861.72;5076689;28;20056;-48
2022/12/15 03:01:36;;;;;;;338.17;231.88;;;;;;;22.19;34.13;99865.19;5075017;28;20078;-46
2022/12/15 03:04:07;;;;;;;308.30;216.38;;;;;;;22.19;34.40;99857.34;5074900;28;20111;-46
2022/12/15 03:06:34;;;;;;;313.67;221.32;;;;;;;22.14;34.31;99849.50;5075024;28;20111;-46
2022/12/15 03:09:02;;;;;;;298.65;210.70;;;;;;;22.16;34.14;99847.75;5076280;28;20052;-47
2022/12/15 03:11:30;;;;;;;292.92;207.77;;;;;;;22.16;34.04;99844.28;5076090;28;20028;-49
2022/12/15 03:13:58;;;;;;;295.27;206.90;;;;;;;22.20;33.96;99843.41;5074607;28;20033;-44
2022/12/15 03:16:26;;;;;;;281.33;196.48;;;;;;;22.20;34.09;99853.88;5076363;28;20051;-41
2022/12/15 03:18:55;;;;;;;285.55;200.05;;;;;;;22.18;33.90;99854.75;5074767;28;20545;-43
2022/12/15 03:21:23;;;;;;;269.27;192.35;;;;;;;22.14;34.12;99839.03;5076159;28;20016;-44
2022/12/15 03:23:51;;;;;;;278.48;187.43;;;;;;;22.24;34.00;99855.63;5074429;28;20029;-41
2022/12/15 03:26:19;;;;;;;266.80;187.27;;;;;;;22.20;33.83;99859.09;5075715;28;20040;-46
2022/12/15 03:28:47;;;;;;;264.83;186.02;;;;;;;22.14;33.88;99848.63;5075829;28;20029;-46
2022/12/15 03:31:19;;;;;;;262.98;181.77;;;;;;;22.16;34.09;99852.13;5074749;28;20025;-47
2022/12/15 03:33:46;;;;;;;262.30;182.43;;;;;;;22.23;33.75;99850.41;5073773;28;20028;-47
2022/12/15 03:36:14;;;;;;;241.55;168.32;;;;;;;22.33;33.71;99848.69;5075397;28;20080;-48
2022/12/15 03:38:42;;;;;;;248.23;173.15;;;;;;;22.31;33.44;99865.25;5075650;28;20074;-47
2022/12/15 03:41:11;;;;;;;251.50;171.50;;;;;;;22.19;33.49;99857.34;5075475;28;20016;-49
2022/12/15 03:43:39;;;;;;;254.15;174.57;;;;;;;22.15;33.89;99858.22;5075391;28;20040;-43
2022/12/15 03:46:06;;;;;;;245.02;166.90;;;;;;;22.16;33.84;99852.13;5075638;28;20033;-46
2022/12/15 03:48:33;;;;;;;242.23;165.45;;;;;;;22.18;33.60;99850.38;5075372;28;20039;-49
2022/12/15 03:51:01;;;;;;;239.75;164.20;;;;;;;22.18;33.70;99858.22;5075370;28;20107;-49
2022/12/15 03:53:31;;;;;;;236.75;162.65;;;;;;;22.19;33.79;99859.09;5073970;28;20027;-49
2022/12/15 03:55:59;;;;;;;238.98;162.90;;;;;;;22.18;33.72;99858.22;5075479;28;20036;-49
2022/12/15 03:58:26;;;;;;;221.63;153.73;;;;;;;22.23;33.32;99863.47;5075433;28;20031;-49
2022/12/15 04:00:55;;;;;;;227.40;150.80;;;;;;;22.23;33.37;99853.88;5075239;28;20025;-41
2022/12/15 04:03:23;;;;;;;225.77;154.38;;;;;;;22.20;33.55;99859.09;5074579;28;20020;-41
2022/12/15 04:05:52;;;;;;;228.77;153.60;;;;;;;22.22;33.60;99861.72;5074867;28;20035;-44
2022/12/15 04:08:25;;;;;;;223.70;152.55;;;;;;;22.20;33.66;99859.09;5073887;28;20024;-49
2022/12/15 04:10:53;;;;;;;217.07;147.57;;;;;;;22.23;33.48;99853.03;5074837;28;20033;-46
2022/12/15 04:13:22;;;;;;;226.68;148.23;;;;;;;22.28;32.97;99859.09;5074447;28;20028;-44
2022/12/15 04:15:51;;;;;;;214.20;145.23;;;;;;;22.26;33.25;99856.50;5074985;28;20028;-52
2022/12/15 04:18:19;;;;;;;214.95;145.90;;;;;;;22.22;33.16;99862.56;5074789;28;20039;-50
2022/12/15 04:20:47;;;;;;;223.80;146.30;;;;;;;22.17;33.55;99864.31;5074981;28;20029;-51
2022/12/15 04:23:16;;;;;;;208.27;140.50;;;;;;;22.16;33.28;99847.75;5074624;28;20448;-49
2022/12/15 05:32:41;;;;;;;143.10;96.82;;;;;;;22.12;32.35;99915.66;5069258;28;20032;-41
2022/12/15 05:35:09;;;;;;;148.48;93.43;;;;;;;22.12;32.07;99926.13;5073325;28;20117;-52
2022/12/15 05:37:37;;;;;;;132.35;91.30;;;;;;;22.13;32.29;99930.47;5073428;28;20064;-46
2022/12/15 05:40:05;;;;;;;130.18;91.28;;;;;;;22.10;32.52;99925.22;5073428;28;20474;-40
2022/12/15 05:42:32;;;;;;;127.53;85.18;;;;;;;22.12;32.07;99929.59;5072783;28;20059;-45
2022/12/15 05:45:00;;;;;;;125.95;85.03;;;;;;;22.13;32.43;99925.25;5073397;28;20070;-40
2022/12/15 05:47:28;;;;;;;123.32;84.05;;;;;;;22.12;32.39;99913.06;5073315;28;20404;-45
2022/12/15 05:49:55;;;;;;;124.95;84.47;;;;;;;22.13;32.06;99913.06;5072179;28;20039;-50
2022/12/15 05:52:23;;;;;;;119.65;82.65;;;;;;;22.12;32.06;99913.06;5072563;28;20050;-46
2022/12/15 05:54:50;;;;;;;114.72;81.13;;;;;;;22.14;32.45;99904.34;5072689;28;20024;-49
2022/12/15 05:57:19;;;;;;;118.78;80.18;;;;;;;22.10;32.28;99920.88;5073322;28;20032;-41
2022/12/15 05:59:47;;;;;;;112.65;76.53;;;;;;;22.16;31.80;99922.66;5071750;28;20077;-46
2022/12/15 06:02:14;;;;;;;107.85;73.72;;;;;;;22.12;31.86;99919.13;5073066;28;20150;-50
2022/12/15 06:04:42;;;;;;;104.30;74.07;;;;;;;22.09;31.88;99918.25;5072707;28;20081;-47
2022/12/15 06:07:10;;;;;;;99.93;72.47;;;;;;;22.14;31.99;99914.78;5072761;28;20024;-43
2022/12/15 06:09:38;;;;;;;110.60;71.93;;;;;;;22.11;31.72;99934.81;5072824;28;20462;-43
2022/12/15 06:12:05;;;;;;;105.28;68.63;;;;;;;22.09;31.82;99923.50;5072735;28;20060;-48
2022/12/15 06:14:32;;;;;;;103.18;70.95;;;;;;;22.10;31.97;99930.47;5072534;28;20036;-49
2022/12/15 06:17:00;;;;;;;100.43;70.50;;;;;;;22.05;31.95;99934.78;5072608;28;20083;-49
2022/12/15 06:19:27;;;;;;;107.07;69.93;;;;;;;22.04;32.01;99941.75;5072616;28;20063;-45
2022/12/15 06:21:54;;;;;;;91.88;66.03;;;;;;;22.01;31.84;99947.81;5073129;28;20104;-47
2022/12/15 06:24:22;;;;;;;93.85;65.82;;;;;;;22.05;31.60;99958.28;5071616;28;20036;-40
2022/12/15 06:26:50;;;;;;;105.07;70.38;;;;;;;22.01;31.80;99979.16;5071435;28;20028;-41
2022/12/15 06:29:18;;;;;;;95.05;63.22;;;;;;;22.03;31.87;99980.91;5071713;28;20470;-41
2022/12/15 06:31:45;;;;;;;98.32;64.97;;;;;;;22.06;31.78;99978.31;5072638;28;20024;-46
2022/12/15 06:34:15;;;;;;;98.45;65.53;;;;;;;22.06;31.71;100007.03;5072242;28;20028;-41
2022/12/15 06:36:43;;;;;;;98.38;64.30;;;;;;;22.01;31.72;99993.97;5072164;28;20131;-40
2022/12/15 06:39:15;;;;;;;99.82;66.97;;;;;;;22.03;31.85;100012.25;5072625;28;20045;-40
2022/12/15 06:41:46;;;;;;;90.35;62.38;;;;;;;22.04;31.72;100012.28;5072665;28;20024;-42
2022/12/15 06:44:15;;;;;;;100.95;59.65;;;;;;;22.06;31.81;100022.72;5071923;28;20127;-41
2022/12/15 06:46:44;;;;;;;86.35;59.05;;;;;;;22.10;31.54;100011.44;5072361;28;20035;-40
2022/12/15 06:49:12;;;;;;;84.05;58.60;;;;;;;22.06;31.63;100007.03;5072224;28;20020;-43
2022/12/15 06:51:40;;;;;;;85.53;60.17;;;;;;;21.99;31.64;99996.59;5071152;28;20028;-48
2022/12/15 06:54:09;;;;;;;89.03;59.78;;;;;;;22.01;31.69;100005.28;5070509;28;20024;-40
2022/12/15 06:56:38;;;;;;;84.88;56.17;;;;;;;22.06;31.81;100007.03;5072057;28;20029;-41
2022/12/15 06:59:06;;;;;;;87.15;57.17;;;;;;;21.97;31.74;99987.84;5072579;28;20027;-48
2022/12/15 07:01:35;;;;;;;85.70;57.30;;;;;;;21.94;31.67;99989.56;5071974;28;20035;-46
2022/12/15 07:04:04;;;;;;;88.35;59.38;;;;;;;21.99;31.46;100001.81;5071731;28;20103;-48
2022/12/15 07:06:35;;;;;;;82.70;57.13;;;;;;;21.96;31.73;100003.50;5072379;28;20056;-46
2022/12/15 07:09:03;;;;;;;76.80;54.75;;;;;;;21.93;31.47;100003.47;5072076;28;20118;-49
2022/12/15 07:11:31;;;;;;;78.85;54.33;;;;;;;21.96;31.52;99993.06;5072177;28;20029;-47
2022/12/15 07:13:58;;;;;;;89.00;55.38;;;;;;;21.93;31.50;99995.63;5072122;28;20028;-45
2022/12/15 07:16:27;;;;;;;85.80;54.60;;;;;;;21.93;31.28;100017.41;5072318;28;20043;-40
2022/12/15 07:18:54;;;;;;;82.32;53.63;;;;;;;21.95;31.49;100010.47;5072039;28;20060;-41
2022/12/15 07:21:22;;;;;;;85.57;55.42;;;;;;;21.96;31.33;100020.06;5071948;28;20020;-46
2022/12/15 07:23:51;;;;;;;83.50;56.60;;;;;;;21.94;31.48;100019.16;5072042;28;20027;-46
2022/12/15 07:26:19;;;;;;;77.88;53.78;;;;;;;21.93;31.27;100008.69;5072236;28;20111;-50
2022/12/15 07:28:47;;;;;;;83.85;55.08;;;;;;;21.94;31.56;100003.50;5071988;28;20031;-46
2022/12/15 07:31:15;;;;;;;84.18;52.78;;;;;;;21.89;31.34;99999.97;5072446;28;20031;-49
2022/12/15 07:33:47;;;;;;;76.72;50.60;;;;;;;21.88;31.31;99995.63;5071486;28;20103;-46
2022/12/15 07:36:15;;;;;;;80.18;52.42;;;;;;;21.91;31.30;100003.47;5071900;28;20040;-48
2022/12/15 07:38:44;;;;;;;78.88;52.50;;;;;;;21.91;31.45;100000.88;5071926;28;20028;-49
2022/12/15 07:41:12;;;;;;;82.63;54.65;;;;;;;21.91;31.62;99994.78;5075745;28;20487;-49
2022/12/15 07:43:40;;;;;;;79.15;53.00;;;;;;;21.96;31.53;99998.28;5075354;28;20481;-49
2022/12/15 07:46:09;;;;;;;82.25;54.88;;;;;;;21.95;31.65;99996.53;5075517;28;20385;-49
2022/12/15 07:48:36;;;;;;;82.38;53.88;;;;;;;21.92;31.46;100000.00;5075551;28;20540;-46
2022/12/15 07:51:08;;;;;;;81.22;53.95;;;;;;;21.96;31.68;100000.88;5074070;28;20048;-42
2022/12/15 07:53:37;;;;;;;78.10;53.22;;;;;;;21.95;31.32;100002.63;5075232;28;20028;-49
2022/12/15 07:56:06;;;;;;;77.90;49.72;;;;;;;21.98;31.29;100005.28;5073841;28;20059;-49
2022/12/15 07:58:34;;;;;;;76.10;50.28;;;;;;;21.94;31.41;99998.28;5075609;28;20471;-45
2022/12/15 08:01:04;;;;;;;81.07;50.15;;;;;;;21.95;31.47;100004.38;5075383;28;20021;-47
2022/12/15 08:03:32;;;;;;;74.20;49.75;;;;;;;21.98;31.49;100012.22;5073721;28;20024;-45
2022/12/15 08:06:04;;;;;;;81.05;51.75;;;;;;;22.03;31.21;100018.34;5075186;28;20078;-48
2022/12/15 08:08:34;;;;;;;74.22;48.78;;;;;;;22.03;31.14;100027.91;5074676;28;20020;-45
2022/12/15 08:11:06;;;;;;;79.20;53.10;;;;;;;21.95;31.47;100035.69;5075181;28;20489;-50
2022/12/15 08:13:36;;;;;;;74.63;51.17;;;;;;;21.94;31.42;100028.72;5074745;28;20021;-49
2022/12/15 08:16:03;;;;;;;75.40;49.33;;;;;;;21.94;31.50;100042.66;5075020;28;20539;-51
2022/12/15 08:18:32;;;;;;;76.00;52.03;;;;;;;21.95;31.27;100036.59;5074752;28;20024;-51
2022/12/15 08:21:10;;;;;;;74.35;48.08;;;;;;;21.97;31.43;100039.19;5073349;28;20032;-49
2022/12/15 08:23:39;;;;;;;73.97;51.55;;;;;;;21.97;30.88;100039.19;5074846;28;20238;-51
2022/12/15 08:26:10;;;;;;;69.63;47.15;;;;;;;21.94;31.13;100045.28;5074527;28;20032;-44
2022/12/15 08:28:38;;;;;;;80.18;50.53;;;;;;;21.96;31.05;100042.66;5074229;28;20111;-45
2022/12/15 08:31:09;;;;;;;81.80;49.28;;;;;;;21.97;31.14;100057.47;5074698;28;20499;-51
2022/12/15 08:33:37;;;;;;;83.80;48.70;;;;;;;21.94;30.91;100066.16;5074816;28;20028;-41
2022/12/15 08:36:11;;;;;;;78.32;50.85;;;;;;;21.88;31.25;100060.91;5074479;28;20044;-50
2022/12/15 08:38:40;;;;;;;74.67;50.20;;;;;;;21.90;31.43;100068.75;5073019;28;20040;-48
2022/12/15 08:41:09;;;;;;;74.38;50.08;;;;;;;21.93;31.17;100073.97;5074476;28;20269;-48
2022/12/15 08:43:37;;;;;;;70.10;48.65;;;;;;;21.93;30.95;100072.25;5073677;28;20025;-46
2022/12/15 08:46:06;;;;;;;72.03;48.10;;;;;;;21.96;30.98;100074.00;5074364;28;20043;-48
2022/12/15 08:48:34;;;;;;;76.72;48.42;;;;;;;21.91;31.00;100073.13;5074373;28;20021;-49
2022/12/15 08:51:04;;;;;;;76.07;49.45;;;;;;;21.92;30.99;100075.72;5072819;28;20103;-49
2022/12/15 08:53:33;;;;;;;70.28;47.08;;;;;;;21.94;31.09;100078.34;5074014;28;20108;-41
2022/12/15 08:56:06;;;;;;;79.43;49.10;;;;;;;21.89;31.01;100077.44;5074193;28;20028;-48
2022/12/15 08:58:33;;;;;;;72.88;48.38;;;;;;;21.90;31.10;100090.50;5074345;28;20031;-46
2022/12/15 09:01:04;;;;;;;76.18;48.20;;;;;;;21.83;30.78;100096.56;5074010;28;20035;-42
2022/12/15 09:03:33;;;;;;;74.03;47.05;;;;;;;21.83;31.18;100104.38;5073888;28;20403;-46
2022/12/15 09:06:06;;;;;;;77.78;48.63;;;;;;;21.83;31.26;100109.63;5073974;28;20024;-46
2022/12/15 09:08:34;;;;;;;80.72;49.63;;;;;;;21.90;31.12;100111.41;5074005;28;20036;-45
2022/12/15 09:11:04;;;;;;;76.43;49.28;;;;;;;21.84;30.97;100107.00;5073850;28;20027;-50
2022/12/15 09:13:33;;;;;;;77.90;50.75;;;;;;;21.87;31.15;100113.97;5072792;28;20371;-45
2022/12/15 09:16:04;;;;;;;72.30;47.30;;;;;;;21.85;30.98;100113.09;5072497;28;20108;-48
2022/12/15 09:18:33;;;;;;;72.53;46.78;;;;;;;21.84;31.10;100121.81;5073713;28;20035;-48
2022/12/15 09:21:02;;;;;;;71.43;48.72;;;;;;;21.81;31.11;100116.56;5073910;28;20032;-48
2022/12/15 09:23:31;;;;;;;75.47;48.90;;;;;;;21.81;31.21;100120.03;5073205;28;20051;-46
2022/12/15 09:26:04;;;;;;;75.22;50.30;;;;;;;21.84;31.26;100120.06;5073642;28;20028;-48
2022/12/15 09:28:32;;;;;;;75.18;48.70;;;;;;;21.83;31.13;100122.66;5072608;28;20079;-51
2022/12/15 09:31:20;;;;;;;71.63;47.63;;;;;;;21.79;30.87;100119.13;5073198;28;20040;-49
2022/12/15 09:33:50;;;;;;;76.72;50.10;;;;;;;21.78;30.99;100122.59;5073748;28;20020;-44
2022/12/15 09:36:19;;;;;;;84.95;51.42;;;;;;;21.84;30.83;100122.66;5073288;28;20048;-47
2022/12/15 09:38:47;;;;;;;75.50;50.13;;;;;;;21.82;30.97;100127.00;5073353;28;20127;-49
2022/12/15 09:41:14;;;;;;;76.53;49.60;;;;;;;21.86;30.82;100122.66;5073312;28;20444;-46
2022/12/15 09:43:55;;;;;;;74.25;48.13;;;;;;;21.84;30.99;100114.84;5073097;28;20029;-50
2022/12/15 09:47:04;;;;;;;71.53;49.30;;;;;;;21.87;30.97;100115.72;5073379;28;20024;-44
2022/12/15 09:50:02;;;;;;;74.88;49.03;;;;;;;21.82;30.97;100108.72;5072519;28;20520;-49
2022/12/15 09:52:33;;;;;;;73.60;50.45;;;;;;;21.84;30.97;100114.84;5071833;28;20024;-44
2022/12/15 09:55:02;;;;;;;74.18;48.67;;;;;;;21.82;30.77;100119.16;5051993;28;20053;-47
2022/12/15 09:57:49;;;;;;;79.05;50.67;;;;;;;21.77;31.09;100114.78;5053241;28;20429;-44
2022/12/15 10:00:20;;;;;;;72.05;47.97;;;;;;;21.79;30.84;100120.88;5049570;28;20036;-40
2022/12/15 10:03:10;;;;;;;79.53;49.05;;;;;;;21.77;30.85;100113.03;5054304;28;20124;-47
2022/12/15 10:06:08;;;;;;;75.68;48.85;;;;;;;21.72;30.74;100111.22;5067908;28;20047;-51
2022/12/15 10:08:43;;;;;;;76.43;49.85;;;;;;;21.81;30.76;100121.78;5069090;28;20093;-46
2022/12/15 10:11:36;;;;;;;77.07;49.65;;;;;;;21.80;30.84;100114.81;5072585;28;20024;-50
2022/12/15 10:14:24;;;;;;;78.30;48.47;;;;;;;21.85;30.77;100110.47;5068576;28;20052;-48
2022/12/15 10:17:30;;;;;;;67.57;45.63;;;;;;;21.81;30.65;100090.44;5066426;28;20342;-50
2022/12/15 10:20:27;;;;;;;72.95;48.28;;;;;;;21.83;30.64;100118.31;5065084;28;20217;-47
2022/12/15 10:23:02;;;;;;;74.13;49.03;;;;;;;21.75;30.83;100112.16;5072340;28;20025;-47
2022/12/15 10:25:34;;;;;;;77.65;49.67;;;;;;;21.79;30.95;100126.97;5072099;28;20397;-45
2022/12/15 10:28:22;;;;;;;75.90;50.33;;;;;;;21.80;30.89;100133.94;5072385;28;20044;-45
2022/12/15 10:31:02;;;;;;;73.75;48.75;;;;;;;21.80;30.60;100131.31;5071247;28;20031;-46
2022/12/15 10:33:42;;;;;;;72.47;48.38;;;;;;;21.78;30.78;100129.56;5072103;28;20028;-46
2022/12/15 10:36:12;;;;;;;72.55;47.38;;;;;;;21.81;30.70;100127.84;5072235;28;20044;-41
2022/12/15 10:38:44;;;;;;;73.60;46.40;;;;;;;21.83;30.88;100128.75;5072571;28;20021;-41
2022/12/15 10:41:15;;;;;;;76.85;48.85;;;;;;;21.83;30.51;100131.38;5072700;28;20435;-45
2022/12/15 10:43:48;;;;;;;72.95;47.78;;;;;;;21.80;30.69;100135.69;5071965;28;20389;-44
2022/12/15 10:46:25;;;;;;;79.45;49.42;;;;;;;21.83;30.29;100138.34;5071190;28;20556;-42
2022/12/15 10:48:58;;;;;;;70.97;48.20;;;;;;;21.78;30.34;100132.19;5072591;28;20424;-45
2022/12/15 10:51:42;;;;;;;66.13;46.95;;;;;;;21.80;30.24;100140.91;5072396;28;20048;-48
2022/12/15 10:54:09;;;;;;;71.88;46.58;;;;;;;21.84;30.71;100138.34;5072030;28;20021;-42
2022/12/15 10:56:50;;;;;;;74.05;47.20;;;;;;;21.82;30.38;100140.06;5072578;28;20055;-48
2022/12/15 10:59:37;;;;;;;79.47;48.80;;;;;;;21.80;30.69;100138.31;5072444;28;20032;-41
2022/12/15 11:02:31;;;;;;;73.80;47.70;;;;;;;21.82;30.71;100127.00;5072567;28;20024;-41
2022/12/15 11:05:06;;;;;;;71.28;46.95;;;;;;;21.89;30.64;100127.94;5072220;28;20522;-49
2022/12/15 11:07:45;;;;;;;80.18;49.75;;;;;;;21.84;30.37;100129.63;5071340;28;20071;-47
2022/12/15 11:10:18;;;;;;;77.38;49.08;;;;;;;21.83;30.71;100125.28;5072185;28;20033;-45
2022/12/15 11:12:55;;;;;;;79.35;49.25;;;;;;;21.83;30.72;100133.97;5070668;28;20029;-50
2022/12/15 11:15:23;;;;;;;71.47;47.47;;;;;;;21.91;30.49;100127.97;5075302;28;20154;-48
2022/12/15 11:18:14;;;;;;;77.35;47.58;;;;;;;21.90;30.36;100121.84;5076444;28;20032;-42
2022/12/15 11:20:51;;;;;;;70.63;46.33;;;;;;;21.87;30.56;100116.59;5052413;28;20063;-45
2022/12/15 11:23:21;;;;;;;77.93;48.35;;;;;;;21.90;30.74;100128.81;5076570;28;20546;-46
2022/12/15 11:25:54;;;;;;;82.07;49.22;;;;;;;21.89;30.53;100132.28;5075197;28;20393;-44
2022/12/15 11:28:37;;;;;;;74.03;48.08;;;;;;;21.88;30.86;100139.22;5076259;28;20042;-41
2022/12/15 11:31:28;;;;;;;77.22;48.88;;;;;;;21.93;30.65;100121.88;5075139;28;20508;-50
2022/12/15 11:33:56;;;;;;;79.10;51.33;;;;;;;21.94;30.70;100126.22;5075721;28;20098;-48
2022/12/15 11:37:03;;;;;;;80.95;50.72;;;;;;;21.91;30.91;100128.81;5075495;28;20102;-49
2022/12/15 11:39:36;;;;;;;81.07;51.53;;;;;;;21.95;30.82;100114.03;5075487;28;20037;-50
2022/12/15 11:42:23;;;;;;;78.10;50.35;;;;;;;21.90;30.89;100115.75;5074549;28;20032;-48
2022/12/15 11:45:13;;;;;;;80.05;51.60;;;;;;;21.93;30.91;100103.59;5072028;28;20037;-41
2022/12/15 11:48:03;;;;;;;75.57;50.42;;;;;;;21.95;30.69;100111.44;5075008;28;20034;-48
2022/12/15 11:50:37;;;;;;;76.72;48.92;;;;;;;21.95;30.51;100104.47;5075268;28;20066;-49
2022/12/15 11:53:43;;;;;;;80.57;50.45;;;;;;;21.98;30.81;100112.34;5075687;28;20563;-48
2022/12/15 11:56:22;;;;;;;87.00;55.10;;;;;;;22.00;30.63;100108.00;5071884;28;20029;-48
2022/12/15 11:59:07;;;;;;;99.53;66.32;;;;;;;21.95;31.12;100112.31;5075933;28;20112;-41
2022/12/15 12:02:02;;;;;;;117.80;74.17;;;;;;;21.99;30.88;100115.81;5075578;28;20066;-49
2022/12/15 12:04:38;;;;;;;135.32;84.93;;;;;;;22.01;31.00;100112.34;5071903;28;20075;-49
2022/12/15 12:07:28;;;;;;;142.10;92.38;;;;;;;22.01;31.09;100099.28;5075271;28;20033;-42
2022/12/15 12:10:09;;;;;;;159.40;102.85;;;;;;;22.00;31.52;100107.13;5074415;28;20025;-40
2022/12/15 12:12:46;;;;;;;169.27;113.25;;;;;;;21.97;31.70;100100.16;5075498;28;20039;-49
2022/12/15 12:15:18;;;;;;;170.38;113.63;;;;;;;22.05;31.72;100104.53;5075528;28;20450;-49
2022/12/15 12:17:53;;;;;;;192.90;126.78;;;;;;;22.04;31.89;100092.34;5074048;28;20028;-48
2022/12/15 12:20:25;;;;;;;194.02;126.00;;;;;;;22.04;31.66;100093.22;5074386;28;20059;-41
2022/12/15 12:23:03;;;;;;;197.23;131.70;;;;;;;22.06;31.68;100091.50;5057468;28;20028;-45
2022/12/15 12:25:35;;;;;;;210.15;136.75;;;;;;;22.07;32.11;100094.97;5073720;28;20051;-44
2022/12/15 12:28:14;;;;;;;214.15;139.95;;;;;;;22.07;32.04;100100.22;5074128;28;20050;-41
2022/12/15 12:30:46;;;;;;;233.30;146.90;;;;;;;22.03;31.96;100090.59;5073660;28;20107;-46
2022/12/15 12:33:25;;;;;;;255.65;157.52;;;;;;;22.06;32.13;100088.91;5074909;28;20093;-44
2022/12/15 12:36:14;;;;;;;230.15;154.88;;;;;;;22.10;32.24;100095.00;5057109;28;20410;-49
2022/12/15 12:38:47;;;;;;;232.98;153.82;;;;;;;22.12;32.14;100101.13;5074535;28;20029;-49
2022/12/15 12:41:18;;;;;;;234.32;157.15;;;;;;;22.11;32.00;100096.75;5075067;28;20367;-51
2022/12/15 12:43:54;;;;;;;232.95;156.55;;;;;;;22.13;32.39;100108.09;5073571;28;20056;-48
2022/12/15 12:46:41;;;;;;;243.18;160.00;;;;;;;22.20;31.98;100103.78;5073805;28;20036;-45
2022/12/15 12:49:34;;;;;;;242.68;161.43;;;;;;;22.25;31.91;100100.34;5074774;28;20034;-47
2022/12/15 12:52:04;;;;;;;250.57;165.88;;;;;;;22.31;32.07;100107.34;5066921;28;20033;-45
2022/12/15 12:54:42;;;;;;;259.23;172.18;;;;;;;22.34;32.12;100102.13;5073371;28;20032;-47
2022/12/15 12:57:14;;;;;;;249.15;169.68;;;;;;;22.37;31.99;100103.88;5074403;28;20033;-46
2022/12/15 12:59:45;;;;;;;247.70;164.52;;;;;;;22.38;32.08;100101.28;5075063;28;20025;-47
2022/12/15 13:02:23;;;;;;;263.75;174.10;;;;;;;22.42;32.10;100102.22;5074617;28;20039;-42
2022/12/15 13:05:12;;;;;;;254.25;170.57;;;;;;;22.43;32.47;100096.97;5074766;28;20059;-46
2022/12/15 13:07:41;;;;;;;260.85;177.25;;;;;;;22.45;32.39;100102.22;5073813;28;20139;-45
2022/12/15 13:10:09;;;;;;;255.02;173.82;;;;;;;22.50;32.64;100089.19;5073330;28;20154;-41
2022/12/15 13:12:48;;;;;;;260.80;176.15;;;;;;;22.50;32.75;100092.69;5074248;28;20056;-47
2022/12/15 13:15:38;;;;;;;273.48;178.38;;;;;;;22.46;32.62;100090.91;5074391;28;20493;-47
2022/12/15 13:18:12;;;;;;;276.08;181.77;;;;;;;22.51;32.69;100104.00;5070745;28;20032;-49
2022/12/15 13:20:41;;;;;;;264.67;177.23;;;;;;;22.55;32.57;100106.63;5074045;28;20052;-44
2022/12/15 13:23:28;;;;;;;263.65;181.30;;;;;;;22.61;32.74;100111.91;5074238;28;20032;-47
2022/12/15 13:25:59;;;;;;;276.58;182.00;;;;;;;22.66;32.70;100105.84;5074211;28;20035;-48
2022/12/15 13:28:41;;;;;;;271.38;182.02;;;;;;;22.67;33.12;100102.34;5073976;28;20033;-45
2022/12/15 13:31:18;;;;;;;275.58;182.35;;;;;;;22.72;32.65;100111.06;5073658;28;20036;-47
2022/12/15 13:33:57;;;;;;;277.85;184.50;;;;;;;22.76;32.78;100105.00;5074199;28;20024;-48
2022/12/15 13:36:46;;;;;;;271.80;182.05;;;;;;;22.76;33.03;100102.38;5073351;28;20048;-48
2022/12/15 13:39:17;;;;;;;275.42;184.70;;;;;;;22.79;32.90;100101.50;5073755;28;20035;-49
2022/12/15 13:42:05;;;;;;;276.10;184.38;;;;;;;22.80;32.76;100096.31;5073485;28;20032;-43
2022/12/15 13:44:33;;;;;;;274.67;186.85;;;;;;;22.92;32.69;100091.13;5073429;28;20021;-47
2022/12/15 13:47:16;;;;;;;268.02;181.88;;;;;;;22.95;32.80;100105.09;5072354;28;20052;-43
2022/12/15 13:49:58;;;;;;;279.80;189.77;;;;;;;22.94;32.69;100098.97;5072272;28;20063;-50